Time;durP1;ratioP1;P1;durP2;ratioP2;P2;SDS_P1;SDS_P2;PMS_P1;PMS_P2;Temp;Humidity;BMP_temperature;BMP_pressure;BME280_temperature;BME280_humidity;BME280_pressure;Samples;Min_cycle;Max_cycle;Signal;HPM_P1;HPM_P2
2024/01/07 00:00:48;;;;;;;21.02;14.35;;;0.30;99.90;;;;;;4893668;29;20052;-78
2024/01/07 00:03:16;;;;;;;11.70;7.57;;;0.30;99.90;;;;;;4888586;29;20051;-78
2024/01/07 00:05:46;;;;;;;39.10;35.70;;;0.30;99.90;;;;;;4894814;29;20038;-79
2024/01/07 00:08:13;;;;;;;22.88;14.05;;;0.30;99.90;;;;;;4922865;29;20046;-78
2024/01/07 00:10:43;;;;;;;16.70;11.73;;;0.40;99.90;;;;;;4913247;29;20047;-79
2024/01/07 00:13:15;;;;;;;13.52;8.98;;;0.30;99.90;;;;;;4916528;29;20705;-79
2024/01/07 00:15:43;;;;;;;23.13;14.32;;;0.40;99.90;;;;;;4934522;29;20054;-78
2024/01/07 00:18:11;;;;;;;18.05;8.85;;;0.30;99.90;;;;;;4909390;29;20046;-79
2024/01/07 00:20:41;;;;;;;22.13;13.57;;;0.30;99.90;;;;;;4904108;29;20047;-79
2024/01/07 00:23:08;;;;;;;14.65;8.73;;;0.30;99.90;;;;;;4902767;29;20719;-78
2024/01/07 00:25:34;;;;;;;36.50;33.25;;;0.30;99.90;;;;;;4903256;29;20040;-79
2024/01/07 00:28:07;;;;;;;19.98;13.93;;;0.30;99.90;;;;;;4903696;29;20071;-78
2024/01/07 00:30:34;;;;;;;12.18;8.60;;;0.30;99.90;;;;;;4918053;29;20067;-78
2024/01/07 00:33:04;;;;;;;34.03;30.92;;;0.40;99.90;;;;;;4910714;29;20068;-78
2024/01/07 00:35:33;;;;;;;20.15;14.10;;;0.30;99.90;;;;;;4902487;29;20043;-79
2024/01/07 00:37:59;;;;;;;17.20;10.80;;;0.30;99.90;;;;;;4902466;29;20051;-78
2024/01/07 00:40:29;;;;;;;18.52;10.30;;;0.30;99.90;;;;;;4902764;29;20112;-79
2024/01/07 00:42:59;;;;;;;13.00;8.50;;;0.30;99.90;;;;;;4917676;29;20625;-79
2024/01/07 00:45:25;;;;;;;14.90;7.75;;;0.30;99.90;;;;;;4916929;29;20052;-78
2024/01/07 00:47:54;;;;;;;15.90;10.35;;;0.30;99.90;;;;;;4902441;29;20380;-79
2024/01/07 00:50:20;;;;;;;23.17;13.00;;;0.30;99.90;;;;;;4902825;29;20040;-79
2024/01/07 00:52:48;;;;;;;22.38;13.05;;;0.40;99.90;;;;;;4902735;29;20052;-79
2024/01/07 00:55:19;;;;;;;13.82;9.18;;;0.20;99.90;;;;;;4909640;29;20044;-78
2024/01/07 00:57:46;;;;;;;21.20;14.23;;;0.20;99.90;;;;;;4921146;29;20044;-78
2024/01/07 01:00:16;;;;;;;19.42;11.30;;;0.30;99.90;;;;;;4921840;29;20047;-79
2024/01/07 01:02:46;;;;;;;36.83;33.38;;;0.30;99.90;;;;;;4920615;29;20044;-78
2024/01/07 01:05:13;;;;;;;16.92;10.77;;;0.40;99.90;;;;;;4921088;29;20036;-78
2024/01/07 01:07:41;;;;;;;15.25;10.23;;;0.20;99.90;;;;;;4920780;29;20486;-78
2024/01/07 01:10:08;;;;;;;17.77;10.57;;;0.30;99.90;;;;;;4918480;29;20044;-78
2024/01/07 01:12:35;;;;;;;32.42;29.60;;;0.20;99.90;;;;;;4921503;29;20048;-78
2024/01/07 01:15:07;;;;;;;12.68;7.50;;;0.30;99.90;;;;;;4920269;29;20079;-79
2024/01/07 01:17:46;;;;;;;21.27;10.10;;;0.30;99.90;;;;;;4922153;29;20478;-79
2024/01/07 01:20:12;;;;;;;16.38;9.95;;;0.30;99.90;;;;;;4904379;29;20032;-79
2024/01/07 01:22:42;;;;;;;31.58;28.70;;;0.30;99.90;;;;;;4910688;29;20046;-79
2024/01/07 01:25:12;;;;;;;17.67;11.15;;;0.30;99.90;;;;;;4901768;29;20039;-79
2024/01/07 01:27:41;;;;;;;10.95;6.90;;;0.20;99.90;;;;;;4902274;29;20040;-79
2024/01/07 01:30:08;;;;;;;10.95;7.28;;;0.30;99.90;;;;;;4903078;29;20036;-79
2024/01/07 01:32:35;;;;;;;30.08;27.30;;;0.30;99.90;;;;;;4915763;29;20571;-79
2024/01/07 01:35:02;;;;;;;12.20;6.43;;;0.30;99.90;;;;;;4916434;29;20050;-79
2024/01/07 01:37:32;;;;;;;14.80;7.53;;;0.20;99.90;;;;;;4920527;29;20402;-79
2024/01/07 01:39:58;;;;;;;12.63;8.25;;;0.30;99.90;;;;;;4919873;29;20059;-79
2024/01/07 01:42:29;;;;;;;8.90;6.18;;;0.30;99.90;;;;;;4903122;29;20040;-79
2024/01/07 01:45:07;;;;;;;11.00;6.97;;;0.30;99.90;;;;;;4896935;29;20048;-79
2024/01/07 01:47:42;;;;;;;25.67;23.38;;;0.30;99.90;;;;;;4903922;29;20040;-79
2024/01/07 01:50:12;;;;;;;11.02;7.03;;;0.20;99.90;;;;;;4918401;29;20405;-78
2024/01/07 01:52:38;;;;;;;25.70;23.25;;;0.30;99.90;;;;;;4915572;29;20046;-79
2024/01/07 01:55:08;;;;;;;13.50;8.27;;;0.30;99.90;;;;;;4900083;29;20048;-79
2024/01/07 01:57:37;;;;;;;9.70;6.63;;;0.30;99.90;;;;;;4900315;29;20040;-79
2024/01/07 02:00:05;;;;;;;10.93;6.80;;;0.20;99.90;;;;;;4900184;29;20044;-79
2024/01/07 02:02:34;;;;;;;10.95;7.28;;;0.30;99.90;;;;;;4900526;29;20059;-79
2024/01/07 02:05:16;;;;;;;27.25;24.75;;;0.30;99.90;;;;;;4900473;29;20503;-79
2024/01/07 02:07:49;;;;;;;11.18;7.15;;;0.30;99.90;;;;;;4901336;29;20406;-79
2024/01/07 02:10:19;;;;;;;13.48;8.25;;;0.30;99.90;;;;;;4900778;29;20047;-78
2024/01/07 02:12:57;;;;;;;13.45;7.65;;;0.20;99.90;;;;;;4917181;29;20035;-79
2024/01/07 02:15:29;;;;;;;27.45;24.95;;;0.20;99.90;;;;;;4900641;29;20483;-79
2024/01/07 02:17:59;;;;;;;10.63;6.80;;;0.30;99.90;;;;;;4911721;29;20043;-79
2024/01/07 02:20:27;;;;;;;18.08;11.15;;;0.30;99.90;;;;;;4916320;29;20495;-80
2024/01/07 02:23:00;;;;;;;17.83;11.13;;;0.30;99.90;;;;;;4917457;29;20040;-79
2024/01/07 02:25:29;;;;;;;8.52;6.10;;;0.30;99.90;;;;;;4919311;29;20698;-79
2024/01/07 02:27:56;;;;;;;16.67;11.05;;;0.30;99.90;;;;;;4917347;29;20099;-79
2024/01/07 02:30:27;;;;;;;17.27;12.20;;;0.30;99.90;;;;;;4919354;29;20383;-78
2024/01/07 02:33:08;;;;;;;13.02;7.72;;;0.30;99.90;;;;;;4924525;29;20060;-78
2024/01/07 02:35:34;;;;;;;18.38;12.57;;;0.30;99.90;;;;;;4884573;29;20052;-79
2024/01/07 02:38:00;;;;;;;17.40;9.23;;;0.30;99.90;;;;;;4918049;29;20046;-79
2024/01/07 02:40:26;;;;;;;18.20;11.65;;;0.30;99.90;;;;;;4900376;29;20052;-78
2024/01/07 02:42:56;;;;;;;13.00;9.05;;;0.30;99.90;;;;;;4904092;29;20055;-79
2024/01/07 02:45:27;;;;;;;21.95;12.13;;;0.30;99.90;;;;;;4917951;29;20502;-79
2024/01/07 02:47:59;;;;;;;16.48;11.13;;;0.30;99.90;;;;;;4918769;29;20052;-79
2024/01/07 02:50:39;;;;;;;19.80;10.73;;;0.40;99.90;;;;;;4903509;29;20041;-79
2024/01/07 02:53:10;;;;;;;31.25;28.55;;;0.30;99.90;;;;;;4900092;29;20064;-78
2024/01/07 02:55:37;;;;;;;16.25;10.18;;;0.30;99.90;;;;;;4900025;29;20044;-79
2024/01/07 02:58:09;;;;;;;12.05;8.23;;;0.30;99.90;;;;;;4900495;29;20043;-79
2024/01/07 03:00:36;;;;;;;31.58;28.77;;;0.30;99.90;;;;;;4900124;29;20102;-79
2024/01/07 03:03:06;;;;;;;27.90;25.42;;;0.20;99.90;;;;;;4910989;29;20044;-79
2024/01/07 03:05:35;;;;;;;12.43;9.02;;;0.30;99.90;;;;;;4919078;29;20032;-78
2024/01/07 03:08:02;;;;;;;12.20;8.52;;;0.30;99.90;;;;;;4918355;29;20518;-78
2024/01/07 03:10:31;;;;;;;15.85;8.95;;;0.30;99.90;;;;;;4918748;29;20047;-79
2024/01/07 03:13:01;;;;;;;16.20;9.55;;;0.30;99.90;;;;;;4918182;29;20040;-79
2024/01/07 03:15:35;;;;;;;17.10;11.85;;;0.30;99.90;;;;;;4915905;29;20075;-79
2024/01/07 03:18:10;;;;;;;9.27;6.57;;;0.30;99.90;;;;;;4899600;29;20036;-79
2024/01/07 03:20:38;;;;;;;16.13;9.70;;;0.30;99.90;;;;;;4901626;29;20082;-79
2024/01/07 03:23:05;;;;;;;15.10;9.23;;;0.20;99.90;;;;;;4915463;29;20047;-79
2024/01/07 03:25:45;;;;;;;9.68;6.25;;;0.20;99.90;;;;;;4899668;29;20063;-79
2024/01/07 03:28:17;;;;;;;13.60;7.82;;;0.20;99.90;;;;;;4900228;29;20040;-78
2024/01/07 03:30:56;;;;;;;13.40;8.35;;;0.20;99.90;;;;;;4903623;29;20112;-79
2024/01/07 03:33:26;;;;;;;13.98;8.32;;;0.20;99.90;;;;;;4910129;29;20179;-79
2024/01/07 03:35:53;;;;;;;26.73;24.33;;;0.20;99.90;;;;;;4901105;29;20117;-79
2024/01/07 03:38:25;;;;;;;15.38;7.82;;;0.10;99.90;;;;;;4903803;29;20052;-79
2024/01/07 03:41:02;;;;;;;7.55;5.53;;;0.20;99.90;;;;;;4907307;29;20035;-79
2024/01/07 03:43:50;;;;;;;9.35;5.95;;;0.20;99.90;;;;;;4923411;29;20062;-79
2024/01/07 03:46:27;;;;;;;10.25;5.88;;;0.20;99.90;;;;;;4923271;29;20044;-79
2024/01/07 03:49:02;;;;;;;10.85;7.97;;;0.20;99.90;;;;;;4929461;29;20043;-79
2024/01/07 03:51:31;;;;;;;11.10;6.90;;;0.20;99.90;;;;;;4930079;29;20115;-78
2024/01/07 03:54:14;;;;;;;14.40;8.77;;;0.20;99.90;;;;;;4925884;29;20035;-79
2024/01/07 03:56:43;;;;;;;13.55;8.73;;;0.20;99.90;;;;;;4924939;29;20108;-79
2024/01/07 03:59:10;;;;;;;10.15;7.38;;;0.20;99.90;;;;;;4925616;29;20081;-79
2024/01/07 04:01:36;;;;;;;11.95;8.38;;;0.20;99.90;;;;;;4914586;29;20048;-79
2024/01/07 04:04:02;;;;;;;25.73;23.42;;;0.20;99.90;;;;;;4906169;29;20036;-79
2024/01/07 04:06:34;;;;;;;12.73;9.15;;;0.20;99.90;;;;;;4913972;29;20043;-79
2024/01/07 04:09:03;;;;;;;11.80;8.13;;;0.20;99.90;;;;;;4924781;29;20044;-79
2024/01/07 04:11:52;;;;;;;;;;;0.10;99.90;;;;;;4932468;29;20040;-79
2024/01/07 04:14:18;;;;;;;9.65;6.45;;;0.10;99.90;;;;;;4931815;29;19975;-79
2024/01/07 04:16:46;;;;;;;12.10;6.72;;;0.10;99.90;;;;;;4904398;29;20048;-79
2024/01/07 04:19:12;;;;;;;24.40;22.25;;;0.10;99.90;;;;;;4916158;29;20071;-79
2024/01/07 04:21:48;;;;;;;13.95;9.07;;;0.10;99.90;;;;;;4922397;29;20070;-79
2024/01/07 04:24:14;;;;;;;8.77;5.97;;;0.10;99.90;;;;;;4923009;29;20178;-79
2024/01/07 04:26:41;;;;;;;9.23;5.70;;;0.10;99.90;;;;;;4923160;29;20112;-79
2024/01/07 04:29:10;;;;;;;5.20;3.38;;;0.10;99.90;;;;;;4923086;29;20091;-79
2024/01/07 04:31:45;;;;;;;14.80;8.70;;;0.20;99.90;;;;;;4921284;29;20048;-79
2024/01/07 04:34:14;;;;;;;14.65;9.48;;;0.10;99.90;;;;;;4922558;29;20132;-79
2024/01/07 04:36:41;;;;;;;13.35;8.85;;;0.10;99.90;;;;;;4922907;29;20055;-79
2024/01/07 04:39:13;;;;;;;14.25;8.93;;;0.10;99.90;;;;;;4911274;29;20044;-79
2024/01/07 04:41:46;;;;;;;9.52;4.80;;;0.10;99.90;;;;;;4905079;29;20495;-79
2024/01/07 04:44:28;;;;;;;10.15;6.53;;;0.00;99.90;;;;;;4922076;29;20042;-79
2024/01/07 04:47:35;;;;;;;10.70;6.95;;;0.10;99.90;;;;;;4922577;29;20046;-79
2024/01/07 04:50:05;;;;;;;7.53;3.47;;;0.00;99.90;;;;;;4918974;29;20127;-79
2024/01/07 04:52:35;;;;;;;23.40;21.15;;;0.10;99.90;;;;;;4903560;29;20048;-79
2024/01/07 04:55:10;;;;;;;7.05;4.80;;;0.10;99.90;;;;;;4902701;29;20068;-79
2024/01/07 04:57:48;;;;;;;8.32;4.97;;;0.10;99.90;;;;;;4918177;29;20044;-79
2024/01/07 05:00:19;;;;;;;13.93;9.80;;;0.10;99.90;;;;;;4922500;29;20036;-79
2024/01/07 05:03:10;;;;;;;12.90;8.15;;;0.00;99.90;;;;;;4902202;29;20059;-79
2024/01/07 05:05:42;;;;;;;6.03;4.57;;;0.10;99.90;;;;;;4902770;29;20051;-79
2024/01/07 05:08:15;;;;;;;9.15;6.95;;;0.00;99.90;;;;;;4902896;29;20499;-79
2024/01/07 05:10:50;;;;;;;;;;;0.10;99.90;;;;;;4899928;29;20035;-80
2024/01/07 05:13:19;;;;;;;10.45;6.78;;;0.10;99.90;;;;;;4901978;29;19969;-79
2024/01/07 05:15:53;;;;;;;10.65;7.22;;;0.10;99.90;;;;;;4917984;29;20241;-79
2024/01/07 05:18:23;;;;;;;11.10;7.28;;;0.10;99.90;;;;;;4917286;29;20052;-79
2024/01/07 05:20:53;;;;;;;12.88;7.93;;;0.10;99.90;;;;;;4917966;29;20473;-79
2024/01/07 05:23:20;;;;;;;7.07;5.95;;;0.00;99.90;;;;;;4901052;29;20056;-79
2024/01/07 05:25:52;;;;;;;5.65;4.45;;;0.00;99.90;;;;;;4918502;29;20418;-79
2024/01/07 05:28:22;;;;;;;19.90;18.02;;;0.00;99.90;;;;;;4921532;29;20040;-79
2024/01/07 05:30:50;;;;;;;8.40;5.57;;;-0.10;99.90;;;;;;4918863;29;20087;-79
2024/01/07 05:33:17;;;;;;;18.77;17.10;;;-0.10;99.90;;;;;;4901994;29;20601;-79
2024/01/07 05:35:47;;;;;;;7.93;5.30;;;-0.10;99.90;;;;;;4901952;29;20047;-79
2024/01/07 05:38:14;;;;;;;7.30;5.40;;;-0.10;99.90;;;;;;4915073;29;20042;-80
2024/01/07 05:40:49;;;;;;;7.32;4.85;;;-0.10;99.90;;;;;;4920413;29;20047;-79
2024/01/07 05:43:19;;;;;;;15.20;13.80;;;-0.20;99.90;;;;;;4906507;29;20039;-79
2024/01/07 05:45:52;;;;;;;8.82;6.38;;;-0.20;99.90;;;;;;4920339;29;20039;-79
2024/01/07 05:48:23;;;;;;;6.80;5.05;;;-0.20;99.90;;;;;;4917425;29;20063;-79
2024/01/07 05:50:53;;;;;;;7.05;4.50;;;-0.10;99.90;;;;;;4915599;29;20036;-79
2024/01/07 05:53:25;;;;;;;6.05;4.65;;;-0.20;99.90;;;;;;4901937;29;20131;-79
2024/01/07 05:58:57;;;;;;;;;;;-0.20;99.90;;;;;;4918202;29;20080;-80
2024/01/07 06:01:27;;;;;;;5.78;3.05;;;-0.20;99.90;;;;;;4920994;29;19919;-80
2024/01/07 06:04:23;;;;;;;;;;;;;;;;;;;;;
2024/01/07 06:06:59;;;;;;;7.35;4.22;;;-0.20;99.90;;;;;;4935739;29;20525;-79
2024/01/07 06:09:35;;;;;;;7.93;5.18;;;-0.20;99.90;;;;;;4921219;29;20119;-79
2024/01/07 06:12:13;;;;;;;4.22;2.72;;;-0.20;99.90;;;;;;4921117;29;20430;-79
2024/01/07 06:15:02;;;;;;;6.60;3.97;;;-0.20;99.90;;;;;;4919240;29;20078;-80
2024/01/07 06:17:34;;;;;;;7.82;3.78;;;-0.20;99.90;;;;;;4933427;29;20062;-80
2024/01/07 06:20:06;;;;;;;8.10;5.60;;;-0.30;99.90;;;;;;4920728;29;20040;-78
2024/01/07 06:22:46;;;;;;;4.88;3.53;;;-0.40;99.90;;;;;;4905517;29;20099;-80
2024/01/07 06:25:12;;;;;;;9.02;8.15;;;-0.30;99.90;;;;;;4920174;29;20091;-79
2024/01/07 06:28:00;;;;;;;4.05;2.78;;;-0.20;99.90;;;;;;4920281;29;20031;-79
2024/01/07 06:30:33;;;;;;;6.03;3.38;;;-0.30;99.90;;;;;;4919938;29;20043;-79
2024/01/07 06:33:36;;;;;;;3.53;2.38;;;-0.30;99.90;;;;;;4920050;29;20490;-80
2024/01/07 06:36:17;;;;;;;6.45;4.13;;;-0.30;99.90;;;;;;4914370;29;20112;-79
2024/01/07 06:38:49;;;;;;;5.13;3.78;;;-0.40;99.90;;;;;;4919699;29;20058;-79
2024/01/07 06:41:16;;;;;;;9.80;4.13;;;-0.40;99.90;;;;;;4914848;29;20044;-79
2024/01/07 06:43:43;;;;;;;2.55;1.30;;;-0.40;99.90;;;;;;4917319;29;20039;-79
2024/01/07 06:46:29;;;;;;;6.25;3.70;;;-0.40;99.90;;;;;;4903906;29;20048;-80
2024/01/07 06:49:12;;;;;;;6.20;3.55;;;-0.40;99.90;;;;;;4902132;29;20073;-79
2024/01/07 06:51:47;;;;;;;3.67;2.75;;;-0.50;99.90;;;;;;4907897;29;20036;-79
2024/01/07 06:54:15;;;;;;;5.05;3.22;;;-0.40;99.90;;;;;;4918453;29;20040;-79
2024/01/07 06:56:44;;;;;;;7.07;6.05;;;-0.50;99.90;;;;;;4912916;29;20090;-79
2024/01/07 06:59:16;;;;;;;4.35;2.17;;;-0.50;99.90;;;;;;4922638;29;20522;-79
2024/01/07 07:01:56;;;;;;;3.10;2.22;;;-0.40;99.90;;;;;;4910295;29;20044;-79
2024/01/07 07:04:23;;;;;;;2.25;2.05;;;-0.40;99.90;;;;;;4920914;29;20156;-79
2024/01/07 07:06:55;;;;;;;7.32;5.72;;;-0.50;99.90;;;;;;4921394;29;20047;-79
2024/01/07 07:09:21;;;;;;;3.83;2.10;;;-0.40;99.90;;;;;;4903690;29;20499;-79
2024/01/07 07:11:50;;;;;;;2.60;2.03;;;-0.40;99.90;;;;;;4936731;29;20470;-78
2024/01/07 07:14:24;;;;;;;4.00;2.50;;;-0.40;99.90;;;;;;4922403;29;20075;-78
2024/01/07 07:16:54;;;;;;;1.67;1.45;;;-0.40;99.90;;;;;;4921446;29;20095;-79
2024/01/07 07:19:24;;;;;;;3.47;2.17;;;-0.40;99.90;;;;;;4920418;29;20056;-79
2024/01/07 07:21:59;;;;;;;3.42;2.17;;;-0.40;99.90;;;;;;4919538;29;20058;-79
2024/01/07 07:24:29;;;;;;;4.80;1.70;;;-0.40;99.90;;;;;;4919956;29;20043;-79
2024/01/07 07:27:04;;;;;;;2.78;1.83;;;-0.40;99.90;;;;;;4920903;29;20508;-79
2024/01/07 07:29:36;;;;;;;3.42;1.73;;;-0.30;99.90;;;;;;4921129;29;20040;-79
2024/01/07 07:32:03;;;;;;;4.93;2.30;;;-0.40;99.90;;;;;;4925467;29;20056;-79
2024/01/07 07:34:32;;;;;;;3.05;1.92;;;-0.30;99.90;;;;;;4908073;29;20340;-78
2024/01/07 07:37:03;;;;;;;5.90;4.80;;;-0.30;99.90;;;;;;4933616;29;20130;-79
2024/01/07 07:39:55;;;;;;;4.18;1.90;;;-0.30;99.90;;;;;;4914108;29;20364;-79
2024/01/07 07:42:26;;;;;;;3.17;1.35;;;-0.30;99.90;;;;;;4917206;29;20091;-79
2024/01/07 07:44:56;;;;;;;6.35;2.15;;;-0.30;99.90;;;;;;4900601;29;20491;-79
2024/01/07 07:47:31;;;;;;;1.20;1.02;;;-0.30;99.90;;;;;;4902677;29;20036;-79
2024/01/07 07:49:57;;;;;;;;;;;-0.20;99.90;;;;;;4913087;29;20573;-79
2024/01/07 07:52:32;;;;;;;5.03;2.67;;;-0.20;99.90;;;;;;4919340;29;19957;-78
2024/01/07 07:55:01;;;;;;;3.13;2.08;;;-0.30;99.90;;;;;;4919088;29;20091;-79
2024/01/07 07:57:30;;;;;;;2.45;1.50;;;-0.20;99.90;;;;;;4908766;29;20043;-79
2024/01/07 08:00:04;;;;;;;3.55;2.10;;;-0.30;99.90;;;;;;4900752;29;20415;-78
2024/01/07 08:02:31;;;;;;;5.68;2.72;;;-0.20;99.90;;;;;;4905567;29;20042;-79
2024/01/07 08:05:04;;;;;;;3.15;2.22;;;-0.30;99.90;;;;;;4918479;29;20146;-78
2024/01/07 08:07:31;;;;;;;3.50;2.28;;;-0.20;99.90;;;;;;4918363;29;20043;-78
2024/01/07 08:10:00;;;;;;;6.30;2.50;;;-0.20;99.90;;;;;;4917550;29;20032;-78
2024/01/07 08:12:32;;;;;;;3.88;2.50;;;-0.20;99.90;;;;;;4913188;29;20040;-81
2024/01/07 08:17:34;;;;;;;2.22;1.50;;;-0.20;99.90;;;;;;4932073;23;20982;-77
2024/01/07 08:20:32;;;;;;;1.73;1.35;;;-0.20;99.90;;;;;;4922012;29;20127;-83
2024/01/07 08:23:17;;;;;;;;;;;;;;;;;;;;;
2024/01/07 08:26:20;;;;;;;2.83;1.50;;;-0.10;99.90;;;;;;4917399;29;20054;-81
2024/01/07 08:32:13;;;;;;;1.63;1.08;;;-0.20;99.90;;;;;;4935885;23;20106;-78
2024/01/07 08:34:39;;;;;;;2.25;1.75;;;-0.30;99.90;;;;;;4925184;29;20085;-77
2024/01/07 08:37:05;;;;;;;3.28;1.80;;;-0.30;99.90;;;;;;4929260;29;20063;-77
2024/01/07 08:39:30;;;;;;;4.97;4.18;;;-0.30;99.90;;;;;;4920781;29;20069;-79
2024/01/07 08:41:56;;;;;;;2.53;1.35;;;-0.40;99.90;;;;;;4912432;29;20042;-77
2024/01/07 08:44:21;;;;;;;4.10;2.15;;;-0.40;99.90;;;;;;4901307;29;20072;-78
2024/01/07 08:46:47;;;;;;;2.17;1.30;;;-0.40;99.90;;;;;;4909392;29;20482;-78
2024/01/07 08:49:13;;;;;;;2.63;1.70;;;-0.40;99.90;;;;;;4912093;29;20115;-77
2024/01/07 08:51:39;;;;;;;1.52;0.70;;;-0.40;99.90;;;;;;4901424;29;20036;-77
2024/01/07 08:54:05;;;;;;;3.92;3.40;;;-0.40;99.90;;;;;;4918167;29;20044;-78
2024/01/07 08:56:30;;;;;;;1.20;1.10;;;-0.40;99.90;;;;;;4902373;29;20070;-77
2024/01/07 08:58:56;;;;;;;2.25;1.52;;;-0.40;99.90;;;;;;4918155;29;20044;-77
2024/01/07 09:01:21;;;;;;;2.13;1.63;;;-0.40;99.90;;;;;;4917783;29;20052;-78
2024/01/07 09:03:47;;;;;;;2.70;1.55;;;-0.40;99.90;;;;;;4901749;29;20104;-78
2024/01/07 09:06:15;;;;;;;1.95;1.52;;;-0.50;99.90;;;;;;4913963;29;20047;-77
2024/01/07 09:08:42;;;;;;;4.32;1.58;;;-0.50;99.90;;;;;;4893582;29;20795;-78
2024/01/07 09:11:10;;;;;;;2.90;1.85;;;-0.50;99.90;;;;;;4916786;29;20036;-77
2024/01/07 09:13:36;;;;;;;4.22;1.70;;;-0.50;99.90;;;;;;4916837;29;20518;-78
2024/01/07 09:16:02;;;;;;;3.30;1.55;;;-0.40;99.90;;;;;;4916783;29;20044;-78
2024/01/07 09:18:28;;;;;;;2.15;1.45;;;-0.50;99.90;;;;;;4913813;29;20052;-78
2024/01/07 09:20:53;;;;;;;2.25;1.88;;;-0.50;99.90;;;;;;4900490;29;20403;-77
2024/01/07 09:23:19;;;;;;;2.42;1.02;;;-0.50;99.90;;;;;;4915834;29;20044;-78
2024/01/07 09:25:46;;;;;;;2.67;1.85;;;-0.50;99.90;;;;;;4906445;29;20051;-78
2024/01/07 09:28:12;;;;;;;4.35;3.40;;;-0.50;99.90;;;;;;4901454;29;20048;-77
2024/01/07 09:30:38;;;;;;;1.25;1.00;;;-0.50;99.90;;;;;;4917126;29;20055;-78
2024/01/07 09:33:04;;;;;;;2.03;1.38;;;-0.50;99.90;;;;;;4917799;29;20130;-78
2024/01/07 09:35:29;;;;;;;2.38;1.20;;;-0.50;99.90;;;;;;4909213;29;20054;-78
2024/01/07 09:37:55;;;;;;;3.20;1.63;;;-0.50;99.90;;;;;;4904177;29;20047;-78
2024/01/07 09:40:21;;;;;;;2.35;1.30;;;-0.50;99.90;;;;;;4889107;29;20092;-78
2024/01/07 09:42:47;;;;;;;2.28;1.50;;;-0.50;99.90;;;;;;4915169;29;20091;-78
2024/01/07 09:45:13;;;;;;;3.15;1.73;;;-0.50;99.90;;;;;;4907398;29;20036;-77
2024/01/07 09:47:43;;;;;;;2.22;1.48;;;-0.50;99.90;;;;;;4911424;29;20032;-78
2024/01/07 09:50:10;;;;;;;2.35;1.63;;;-0.50;99.90;;;;;;4908173;29;20040;-79
2024/01/07 09:52:38;;;;;;;1.45;1.35;;;-0.40;99.90;;;;;;4911416;29;20180;-77
2024/01/07 09:55:08;;;;;;;2.25;1.33;;;-0.40;99.90;;;;;;4912204;29;20539;-78
2024/01/07 09:57:34;;;;;;;1.45;1.17;;;-0.40;99.90;;;;;;4900400;29;20063;-79
2024/01/07 10:00:01;;;;;;;2.60;1.50;;;-0.40;99.90;;;;;;4904747;29;20359;-78
2024/01/07 10:02:26;;;;;;;2.47;1.73;;;-0.40;99.90;;;;;;4910221;29;20059;-78
2024/01/07 10:04:52;;;;;;;4.97;1.50;;;-0.30;99.90;;;;;;4899067;29;20040;-78
2024/01/07 10:07:17;;;;;;;3.95;1.42;;;-0.20;99.90;;;;;;4909810;29;20064;-79
2024/01/07 10:09:43;;;;;;;2.95;1.85;;;-0.20;99.90;;;;;;4910695;29;20028;-78
2024/01/07 10:12:09;;;;;;;2.72;1.65;;;-0.20;99.90;;;;;;4914998;29;20050;-78
2024/01/07 10:14:35;;;;;;;4.60;1.77;;;-0.10;99.90;;;;;;4881601;29;20053;-78
2024/01/07 10:17:01;;;;;;;1.45;1.15;;;0.00;99.90;;;;;;4895413;29;20119;-79
2024/01/07 10:19:26;;;;;;;1.35;0.80;;;0.00;99.90;;;;;;4900548;29;20402;-78
2024/01/07 10:22:19;;;;;;;1.60;1.45;;;0.10;99.90;;;;;;4897462;29;20040;-79
2024/01/07 10:24:45;;;;;;;2.33;1.42;;;0.10;99.90;;;;;;4897965;29;20045;-79
2024/01/07 10:27:11;;;;;;;2.85;1.58;;;0.00;99.90;;;;;;4897810;29;20483;-78
2024/01/07 10:29:36;;;;;;;2.63;1.50;;;0.10;99.90;;;;;;4896914;29;20047;-78
2024/01/07 10:32:04;;;;;;;1.55;1.20;;;0.10;99.90;;;;;;4891008;29;20039;-77
2024/01/07 10:34:35;;;;;;;4.18;2.55;;;0.10;99.90;;;;;;4890565;29;20511;-77
2024/01/07 10:37:02;;;;;;;2.33;1.30;;;0.20;99.90;;;;;;4912258;29;20048;-77
2024/01/07 10:39:28;;;;;;;0.70;0.70;;;0.20;99.90;;;;;;4914641;29;20040;-77
2024/01/07 10:41:58;;;;;;;1.73;1.13;;;0.20;99.90;;;;;;4912457;29;20091;-77
2024/01/07 10:44:27;;;;;;;2.13;1.60;;;0.30;99.90;;;;;;4913057;29;20083;-78
2024/01/07 10:46:56;;;;;;;3.85;1.20;;;0.40;99.90;;;;;;4896492;29;20036;-78
2024/01/07 10:49:28;;;;;;;3.85;2.45;;;0.40;99.90;;;;;;4905626;29;20036;-77
2024/01/07 10:52:07;;;;;;;2.25;1.67;;;0.50;99.90;;;;;;4906683;29;20084;-77
2024/01/07 10:54:34;;;;;;;2.80;1.42;;;0.50;99.90;;;;;;4897012;29;20043;-77
2024/01/07 10:57:40;;;;;;;5.68;1.77;;;0.60;99.90;;;;;;4906604;29;20071;-77
2024/01/07 11:00:07;;;;;;;2.42;0.68;;;0.60;99.90;;;;;;4915640;29;20063;-76
2024/01/07 11:03:18;;;;;;;0.55;0.55;;;0.60;99.90;;;;;;4898599;29;20079;-77
2024/01/07 11:05:52;;;;;;;5.05;1.17;;;0.60;99.90;;;;;;4884122;29;20056;-76
2024/01/07 11:08:36;;;;;;;3.30;2.13;;;0.70;99.90;;;;;;4895670;29;20611;-77
2024/01/07 11:11:16;;;;;;;4.82;1.42;;;0.80;99.90;;;;;;4916541;29;20392;-77
2024/01/07 11:13:41;;;;;;;2.90;0.98;;;0.80;99.90;;;;;;4904955;29;20048;-76
2024/01/07 11:16:11;;;;;;;1.25;0.90;;;0.80;99.90;;;;;;4914448;29;20055;-77
2024/01/07 11:18:51;;;;;;;3.63;1.98;;;0.90;99.90;;;;;;4886403;29;20119;-77
2024/01/07 11:21:24;;;;;;;4.47;2.05;;;0.90;99.90;;;;;;4895703;29;20056;-77
2024/01/07 11:23:52;;;;;;;1.45;0.73;;;0.90;99.90;;;;;;4906548;29;20044;-76
2024/01/07 11:26:19;;;;;;;2.30;1.38;;;0.90;99.90;;;;;;4890378;29;20044;-77
2024/01/07 11:28:54;;;;;;;2.78;2.08;;;0.90;99.90;;;;;;4914589;29;20044;-77
2024/01/07 11:31:41;;;;;;;1.75;0.80;;;0.90;99.90;;;;;;4909698;29;20252;-78
2024/01/07 11:34:07;;;;;;;4.20;2.30;;;0.90;99.90;;;;;;4914167;29;20122;-77
2024/01/07 11:36:36;;;;;;;3.72;2.20;;;0.90;99.90;;;;;;4885575;29;20115;-78
2024/01/07 11:39:08;;;;;;;4.28;1.98;;;0.90;99.90;;;;;;4880255;29;20041;-77
2024/01/07 11:41:35;;;;;;;1.20;0.95;;;0.80;99.90;;;;;;4895469;29;20067;-77
2024/01/07 11:44:02;;;;;;;3.35;2.33;;;0.80;99.90;;;;;;4880634;29;20488;-77
2024/01/07 11:46:29;;;;;;;1.80;1.35;;;0.80;99.90;;;;;;4917520;29;20089;-80
2024/01/07 11:48:58;;;;;;;4.03;1.30;;;0.80;99.90;;;;;;4928378;29;20035;-78
2024/01/07 11:51:31;;;;;;;4.13;1.48;;;0.80;99.90;;;;;;4912573;29;20115;-77
2024/01/07 11:53:58;;;;;;;2.72;0.95;;;0.90;99.90;;;;;;4908986;29;20115;-78
2024/01/07 11:56:27;;;;;;;4.32;2.47;;;0.90;99.90;;;;;;4915367;29;20040;-78
2024/01/07 11:58:53;;;;;;;1.73;1.20;;;0.90;99.90;;;;;;4914093;29;20392;-77
2024/01/07 12:01:19;;;;;;;3.58;1.45;;;0.90;99.90;;;;;;4905388;29;20036;-77
2024/01/07 12:03:46;;;;;;;3.13;1.63;;;0.90;99.90;;;;;;4917638;29;20048;-78
2024/01/07 12:06:13;;;;;;;4.10;2.70;;;0.90;99.90;;;;;;4915544;29;20135;-78
2024/01/07 12:08:40;;;;;;;1.10;0.93;;;0.90;99.90;;;;;;4916430;29;20044;-78
2024/01/07 12:11:06;;;;;;;4.35;2.78;;;0.90;99.90;;;;;;4884137;29;20127;-78
2024/01/07 12:13:32;;;;;;;2.75;1.88;;;0.90;99.90;;;;;;4882843;29;20128;-77
2024/01/07 12:15:58;;;;;;;4.75;2.60;;;0.90;99.90;;;;;;4893326;29;20549;-78
2024/01/07 12:18:25;;;;;;;2.70;1.20;;;0.90;99.90;;;;;;4893463;29;20115;-78
2024/01/07 12:20:59;;;;;;;1.70;1.05;;;0.90;99.90;;;;;;4909836;29;20054;-78
2024/01/07 12:23:25;;;;;;;4.07;2.72;;;1.00;99.90;;;;;;4908366;29;20380;-77
2024/01/07 12:25:57;;;;;;;3.80;2.15;;;0.90;99.90;;;;;;4899701;29;20045;-78
2024/01/07 12:28:24;;;;;;;2.30;1.23;;;1.00;99.90;;;;;;4911742;29;20427;-78
2024/01/07 12:30:50;;;;;;;4.72;3.10;;;1.50;99.90;;;;;;4884861;29;20045;-78
2024/01/07 12:33:19;;;;;;;4.70;2.65;;;1.90;99.90;;;;;;4904381;29;20044;-78
2024/01/07 12:35:46;;;;;;;1.27;0.98;;;2.20;99.90;;;;;;4915906;29;20511;-78
2024/01/07 12:38:12;;;;;;;2.22;1.50;;;2.40;99.90;;;;;;4917535;29;20179;-78
2024/01/07 12:40:39;;;;;;;4.45;2.72;;;2.70;99.90;;;;;;4917303;29;20131;-78
2024/01/07 12:43:06;;;;;;;3.72;2.70;;;2.70;99.90;;;;;;4900853;29;20052;-78
2024/01/07 12:45:32;;;;;;;3.90;2.60;;;2.60;99.90;;;;;;4912201;29;20395;-78
2024/01/07 12:48:01;;;;;;;4.45;2.72;;;2.30;99.90;;;;;;4889503;29;20381;-78
2024/01/07 12:50:29;;;;;;;4.07;1.60;;;2.10;99.90;;;;;;4905632;29;20503;-78
2024/01/07 12:52:55;;;;;;;3.78;2.80;;;2.00;99.90;;;;;;4908138;29;20068;-78
2024/01/07 12:55:20;;;;;;;0.47;0.47;;;1.90;99.90;;;;;;4899753;29;20076;-78
2024/01/07 12:57:46;;;;;;;4.63;2.90;;;1.90;99.90;;;;;;4907761;29;20100;-78
2024/01/07 13:00:12;;;;;;;4.15;2.70;;;1.80;99.90;;;;;;4894686;29;20044;-80
2024/01/07 13:02:38;;;;;;;5.93;2.90;;;1.70;99.90;;;;;;4897918;29;20127;-80
2024/01/07 13:05:04;;;;;;;3.25;2.47;;;1.70;99.90;;;;;;4896663;29;20076;-80
2024/01/07 13:07:30;;;;;;;4.82;2.70;;;1.60;99.90;;;;;;4919232;29;20055;-80
2024/01/07 13:09:55;;;;;;;2.53;1.45;;;1.60;99.90;;;;;;4904063;29;20068;-80
2024/01/07 13:12:21;;;;;;;2.58;1.48;;;1.50;99.90;;;;;;4920041;29;20055;-79
2024/01/07 13:14:47;;;;;;;4.20;3.10;;;1.40;99.90;;;;;;4903662;29;20048;-80
2024/01/07 13:17:13;;;;;;;4.88;3.58;;;1.40;99.90;;;;;;4904165;29;20044;-80